createdAt,value
2023-03-31T00:00:58.319Z,51.98
2023-03-31T00:03:27.934Z,52.05
2023-03-31T00:06:00.830Z,52.07
2023-03-31T00:08:35.743Z,52.29
2023-03-31T00:11:05.104Z,52.71
2023-03-31T00:13:34.467Z,52.73
2023-03-31T00:16:04.762Z,52.91
2023-03-31T00:18:33.834Z,52.95
2023-03-31T00:21:29.903Z,53.09
2023-03-31T00:24:01.624Z,53.34
2023-03-31T00:26:30.795Z,53.58
2023-03-31T00:28:59.972Z,53.59
2023-03-31T00:31:28.580Z,53.67
2023-03-31T00:33:57.133Z,53.46
2023-03-31T00:36:29.182Z,53.47
2023-03-31T00:39:11.504Z,53.44
2023-03-31T00:41:41.925Z,53.42
2023-03-31T00:44:24.914Z,53.54
2023-03-31T00:47:08.130Z,53.47
2023-03-31T00:49:41.296Z,53.57
2023-03-31T00:52:14.398Z,53.71
2023-03-31T00:54:43.151Z,53.72
2023-03-31T00:57:12.899Z,53.77
2023-03-31T00:59:44.172Z,53.82
2023-03-31T01:02:13.714Z,53.93
2023-03-31T01:04:45.835Z,53.99
2023-03-31T01:07:31.806Z,54.16
2023-03-31T01:10:00.696Z,54.13
2023-03-31T01:17:55.952Z,54.47
2023-03-31T01:20:27.282Z,54.43
2023-03-31T01:23:17.556Z,54.50
2023-03-31T01:26:38.856Z,54.66
2023-03-31T01:29:27.867Z,55.23
2023-03-31T01:32:19.490Z,55.52
2023-03-31T01:35:06.157Z,55.65
2023-03-31T01:37:57.842Z,56.23
2023-03-31T01:40:49.739Z,56.70
2023-03-31T01:43:39.409Z,57.02
2023-03-31T01:46:20.338Z,57.39
2023-03-31T01:48:59.637Z,57.96
2023-03-31T01:51:56.665Z,58.27
2023-03-31T01:54:58.278Z,58.54
2023-03-31T01:57:34.773Z,58.82
2023-03-31T02:00:12.968Z,59.40
2023-03-31T02:03:08.128Z,59.68
2023-03-31T02:05:54.300Z,60.16
2023-03-31T02:08:30.233Z,60.53
2023-03-31T02:11:00.970Z,61.24
2023-03-31T02:13:29.914Z,61.46
2023-03-31T02:16:01.581Z,61.88
2023-03-31T02:18:33.302Z,62.63
2023-03-31T02:21:01.564Z,62.64
2023-03-31T02:23:31.967Z,62.71
2023-03-31T02:26:08.515Z,62.74
2023-03-31T02:28:36.851Z,62.92
2023-03-31T02:31:11.633Z,62.98
2023-03-31T02:34:23.307Z,62.70
2023-03-31T02:36:51.653Z,62.90
2023-03-31T02:52:21.722Z,61.92
2023-03-31T02:55:12.420Z,62.14
2023-03-31T02:58:20.914Z,63.18
2023-03-31T03:01:01.527Z,63.62
2023-03-31T03:03:46.338Z,64.05
2023-03-31T03:06:38.788Z,64.70
2023-03-31T03:09:32.022Z,65.54
2023-03-31T03:12:13.491Z,65.89
2023-03-31T03:15:07.335Z,66.27
2023-03-31T03:17:39.782Z,66.83
2023-03-31T03:20:09.509Z,67.30
2023-03-31T03:22:39.969Z,67.31
2023-03-31T03:25:10.739Z,67.61
2023-03-31T03:27:40.485Z,67.62
2023-03-31T03:30:10.278Z,67.73
2023-03-31T03:32:39.326Z,67.81
2023-03-31T03:35:07.755Z,68.10
2023-03-31T03:37:35.824Z,68.39
2023-03-31T03:40:06.145Z,68.36
2023-03-31T03:42:35.303Z,68.36
2023-03-31T03:57:53.389Z,67.36
2023-03-31T04:00:21.955Z,67.08
2023-03-31T04:02:50.317Z,67.29
2023-03-31T04:05:19.005Z,67.61
2023-03-31T04:07:47.208Z,67.72
2023-03-31T04:10:18.626Z,67.72
2023-03-31T04:12:47.602Z,67.92
2023-03-31T04:15:16.680Z,68.32
2023-03-31T04:17:51.216Z,68.61
2023-03-31T04:20:21.514Z,68.73
2023-03-31T04:22:52.184Z,68.96
2023-03-31T04:25:22.854Z,69.21
2023-03-31T04:27:55.114Z,69.30
2023-03-31T04:30:30.944Z,69.20
2023-03-31T04:33:02.931Z,69.13
2023-03-31T04:35:50.418Z,69.21
2023-03-31T04:38:24.104Z,69.03
2023-03-31T04:40:52.595Z,69.19
2023-03-31T04:43:22.400Z,69.35
2023-03-31T04:45:50.860Z,69.29
2023-03-31T04:48:19.501Z,69.28
2023-03-31T04:50:48.310Z,69.26
2023-03-31T04:53:16.604Z,69.38
2023-03-31T04:55:46.085Z,69.61
2023-03-31T04:58:14.521Z,70.07
2023-03-31T05:00:44.002Z,70.44
2023-03-31T05:03:13.541Z,70.78
2023-03-31T05:05:42.214Z,71.14
2023-03-31T05:08:10.810Z,71.37
2023-03-31T05:10:48.080Z,71.56
2023-03-31T05:13:17.025Z,71.69
2023-03-31T05:15:45.688Z,72.06
2023-03-31T05:18:14.772Z,72.45
2023-03-31T05:20:43.284Z,72.65
2023-03-31T05:23:11.810Z,72.93
2023-03-31T05:25:42.391Z,73.18
2023-03-31T05:28:10.872Z,73.23
2023-03-31T05:30:42.012Z,73.45
2023-03-31T05:33:10.252Z,73.68
2023-03-31T05:35:39.498Z,73.74
2023-03-31T05:38:08.234Z,73.93
2023-03-31T05:40:37.671Z,74.20
2023-03-31T05:43:06.040Z,74.43
2023-03-31T05:45:34.809Z,74.76
2023-03-31T05:48:03.765Z,74.88
2023-03-31T05:50:32.760Z,74.86
2023-03-31T05:53:17.688Z,74.79
2023-03-31T05:55:47.350Z,74.57
2023-03-31T05:58:16.693Z,74.40
2023-03-31T06:00:45.168Z,74.53
2023-03-31T06:03:15.060Z,74.59
2023-03-31T06:05:50.287Z,74.43
2023-03-31T06:08:28.912Z,74.47
2023-03-31T06:10:59.842Z,74.40
2023-03-31T06:13:31.265Z,74.33
2023-03-31T06:16:00.538Z,74.24
2023-03-31T06:18:32.415Z,74.36
2023-03-31T06:21:00.870Z,74.62
2023-03-31T06:23:29.896Z,74.56
2023-03-31T06:26:03.092Z,74.62
2023-03-31T06:28:36.831Z,74.35
2023-03-31T06:31:11.137Z,74.28
2023-03-31T06:33:40.340Z,74.35
2023-03-31T06:36:11.443Z,74.36
2023-03-31T06:38:40.017Z,74.32
2023-03-31T06:41:08.775Z,74.13
2023-03-31T06:43:37.356Z,74.28
2023-03-31T06:46:05.967Z,74.10
2023-03-31T06:48:34.541Z,74.31
2023-03-31T06:51:07.253Z,74.22
2023-03-31T06:53:37.026Z,74.15
2023-03-31T06:56:06.902Z,74.12
2023-03-31T06:58:36.560Z,74.08
2023-03-31T07:01:08.240Z,73.94
2023-03-31T07:03:44.576Z,73.90
2023-03-31T07:06:13.106Z,73.99
2023-03-31T07:08:44.388Z,73.90
2023-03-31T07:11:12.690Z,74.08
2023-03-31T07:13:42.397Z,74.00
2023-03-31T07:16:13.778Z,74.11
2023-03-31T07:18:42.567Z,74.21
2023-03-31T07:21:11.581Z,74.27
2023-03-31T07:23:40.235Z,74.11
2023-03-31T07:26:08.708Z,74.01
2023-03-31T07:28:37.290Z,73.99
2023-03-31T07:31:11.358Z,73.96
2023-03-31T07:33:41.065Z,74.16
2023-03-31T07:36:13.227Z,74.15
2023-03-31T07:38:47.137Z,74.18
2023-03-31T07:41:18.787Z,73.92
2023-03-31T07:43:47.292Z,74.19
2023-03-31T07:46:23.404Z,74.32
2023-03-31T07:48:51.880Z,74.47
2023-03-31T07:51:22.794Z,74.40
2023-03-31T07:53:54.144Z,74.07
2023-03-31T07:56:24.546Z,74.05
2023-03-31T07:58:56.828Z,74.00
2023-03-31T08:01:26.443Z,74.08
2023-03-31T08:03:55.967Z,74.21
2023-03-31T08:06:25.056Z,74.37
2023-03-31T08:08:59.632Z,74.33
2023-03-31T08:11:31.157Z,74.29
2023-03-31T08:14:00.175Z,74.38
2023-03-31T08:16:28.858Z,74.70
2023-03-31T08:19:02.850Z,74.69
2023-03-31T08:21:32.380Z,74.87
2023-03-31T08:24:01.867Z,75.03
2023-03-31T08:26:32.193Z,75.00
2023-03-31T08:29:00.474Z,75.13
2023-03-31T08:31:31.168Z,75.34
2023-03-31T08:33:59.424Z,75.68
2023-03-31T08:36:30.551Z,75.91
2023-03-31T08:38:59.340Z,75.95
2023-03-31T08:41:52.692Z,76.08
2023-03-31T08:44:37.272Z,76.24
2023-03-31T08:47:06.274Z,76.26
2023-03-31T08:49:54.443Z,76.23
2023-03-31T08:52:41.390Z,76.22
2023-03-31T08:55:17.192Z,76.31
2023-03-31T08:58:08.304Z,76.17
2023-03-31T09:01:14.025Z,76.27
2023-03-31T09:04:02.212Z,76.24
2023-03-31T09:06:38.203Z,76.36
2023-03-31T09:09:11.630Z,76.25
2023-03-31T09:11:47.681Z,76.20
2023-03-31T09:14:16.425Z,76.09
2023-03-31T09:17:15.461Z,75.91
2023-03-31T09:19:54.640Z,75.94
2023-03-31T09:22:25.569Z,75.82
2023-03-31T09:25:08.101Z,75.71
2023-03-31T09:27:37.702Z,75.76
2023-03-31T09:30:15.738Z,75.55
2023-03-31T09:32:44.439Z,75.59
2023-03-31T09:35:21.952Z,75.71
2023-03-31T09:37:50.179Z,75.66
2023-03-31T09:40:20.538Z,75.49
2023-03-31T09:42:51.933Z,75.38
2023-03-31T09:45:20.284Z,75.49
2023-03-31T09:47:56.492Z,75.41
2023-03-31T09:50:25.596Z,75.01
2023-03-31T09:52:56.675Z,74.69
2023-03-31T09:55:45.637Z,74.06
2023-03-31T09:58:16.279Z,74.13
2023-03-31T10:01:10.078Z,73.63
2023-03-31T10:03:52.600Z,73.73
2023-03-31T10:06:23.437Z,73.59
2023-03-31T10:08:58.626Z,72.62
2023-03-31T10:11:27.378Z,72.67
2023-03-31T10:14:00.521Z,72.46
2023-03-31T10:16:30.970Z,72.50
2023-03-31T10:19:34.827Z,71.99
2023-03-31T10:22:09.483Z,71.16
2023-03-31T10:24:45.520Z,70.98
2023-03-31T10:27:27.081Z,70.70
2023-03-31T10:29:59.716Z,70.16
2023-03-31T10:32:29.737Z,70.00
2023-03-31T10:35:06.527Z,69.72
2023-03-31T10:37:35.795Z,69.37
2023-03-31T10:40:09.462Z,69.31
2023-03-31T10:42:38.373Z,69.34
2023-03-31T10:45:37.918Z,69.43
2023-03-31T10:48:09.678Z,68.79
2023-03-31T10:50:43.436Z,68.78
2023-03-31T10:53:15.878Z,67.94
2023-03-31T10:56:08.810Z,67.13
2023-03-31T10:59:02.087Z,66.64
2023-03-31T11:01:38.714Z,65.92
2023-03-31T11:04:22.473Z,65.06
2023-03-31T11:07:10.441Z,64.00
2023-03-31T11:09:57.888Z,63.61
2023-03-31T11:12:33.374Z,63.64
2023-03-31T11:15:17.577Z,63.08
2023-03-31T11:17:51.729Z,62.68
2023-03-31T11:20:36.863Z,62.34
2023-03-31T11:23:24.644Z,62.01
2023-03-31T11:26:12.986Z,61.39
2023-03-31T11:28:43.866Z,61.27
2023-03-31T11:33:24.759Z,59.22
2023-03-31T11:36:04.599Z,57.92
2023-03-31T11:38:42.533Z,58.03
2023-03-31T11:41:16.663Z,58.23
2023-03-31T11:43:48.798Z,58.33
2023-03-31T11:46:36.452Z,58.39
2023-03-31T11:49:08.874Z,58.03
2023-03-31T11:51:39.511Z,57.70
2023-03-31T11:54:12.424Z,57.69
2023-03-31T11:56:41.412Z,58.46
2023-03-31T11:59:13.767Z,58.15
2023-03-31T12:02:07.215Z,58.04
2023-03-31T12:04:43.883Z,58.31
2023-03-31T12:07:37.836Z,57.67
2023-03-31T12:10:20.382Z,57.84
2023-03-31T12:12:51.211Z,58.43
2023-03-31T12:15:24.182Z,57.96
2023-03-31T12:18:09.450Z,57.53
2023-03-31T12:21:00.808Z,56.56
2023-03-31T12:23:31.976Z,57.24
2023-03-31T12:26:09.767Z,56.17
2023-03-31T12:28:40.778Z,56.29
2023-03-31T12:31:12.455Z,56.22
2023-03-31T12:33:42.660Z,56.05
2023-03-31T12:36:55.457Z,55.70
2023-03-31T12:39:30.221Z,55.95
2023-03-31T12:42:07.788Z,56.14
2023-03-31T12:44:38.370Z,56.36
2023-03-31T12:47:13.742Z,55.84
2023-03-31T12:49:59.279Z,55.48
2023-03-31T12:52:55.477Z,55.66
2023-03-31T12:55:33.486Z,56.28
2023-03-31T12:58:31.666Z,56.32
2023-03-31T13:01:06.153Z,56.32
2023-03-31T13:03:35.509Z,55.32
2023-03-31T13:06:04.050Z,55.22
2023-03-31T13:08:51.721Z,55.51
2023-03-31T13:11:36.207Z,55.08
2023-03-31T13:14:52.041Z,54.39
2023-03-31T13:17:26.377Z,54.14
2023-03-31T13:19:55.436Z,53.85
2023-03-31T13:22:48.430Z,53.63
2023-03-31T13:25:30.198Z,53.54
2023-03-31T13:27:59.697Z,53.13
2023-03-31T13:30:37.517Z,53.10
2023-03-31T13:33:12.840Z,53.29
2023-03-31T13:35:44.746Z,53.37
2023-03-31T13:38:36.199Z,53.04
2023-03-31T13:41:38.149Z,52.69
2023-03-31T13:44:06.424Z,52.43
2023-03-31T13:47:01.677Z,52.53
2023-03-31T13:49:39.133Z,52.79
2023-03-31T13:52:12.261Z,52.58
2023-03-31T13:55:27.343Z,52.44
2023-03-31T13:58:32.822Z,52.26
2023-03-31T14:01:17.242Z,51.75
2023-03-31T14:03:59.720Z,51.31
2023-03-31T14:06:36.266Z,50.59
2023-03-31T14:09:12.862Z,50.38
2023-03-31T14:11:46.635Z,50.06
2023-03-31T14:14:37.640Z,49.41
2023-03-31T14:17:07.869Z,49.41
2023-03-31T14:19:51.447Z,48.35
2023-03-31T14:22:42.470Z,48.49
2023-03-31T14:25:36.305Z,49.70
2023-03-31T14:28:17.535Z,48.87
2023-03-31T14:31:13.733Z,48.62
2023-03-31T14:34:08.340Z,48.68
2023-03-31T14:36:41.939Z,48.84
2023-03-31T14:39:11.420Z,49.11
2023-03-31T14:41:41.827Z,49.26
2023-03-31T14:44:14.954Z,49.45
2023-03-31T14:46:43.417Z,49.40
2023-03-31T14:49:22.012Z,49.54
2023-03-31T14:52:01.151Z,49.12
2023-03-31T14:54:46.792Z,49.18
2023-03-31T14:57:24.108Z,48.93
2023-03-31T14:59:53.498Z,48.80
2023-03-31T15:02:51.687Z,48.89
2023-03-31T15:05:28.458Z,49.03
2023-03-31T15:08:03.082Z,48.65
2023-03-31T15:10:36.258Z,48.72
2023-03-31T15:13:10.009Z,48.93
2023-03-31T15:15:38.619Z,49.18
2023-03-31T15:18:09.454Z,49.08
2023-03-31T15:20:41.394Z,49.27
2023-03-31T15:23:27.634Z,48.73
2023-03-31T15:25:59.664Z,48.96
2023-03-31T15:28:29.633Z,49.59
2023-03-31T15:33:54.053Z,50.40
2023-03-31T15:36:22.798Z,50.72
2023-03-31T15:38:57.694Z,50.98
2023-03-31T15:41:29.684Z,51.34
2023-03-31T15:44:08.885Z,51.42
2023-03-31T15:46:48.551Z,51.21
2023-03-31T15:49:20.827Z,50.98
2023-03-31T15:51:50.828Z,51.07
2023-03-31T15:54:35.698Z,50.75
2023-03-31T15:57:05.554Z,50.47
2023-03-31T15:59:57.117Z,50.45
2023-03-31T16:02:39.267Z,49.66
2023-03-31T16:05:10.947Z,49.38
2023-03-31T16:07:48.636Z,48.95
2023-03-31T16:10:21.448Z,48.53
2023-03-31T16:12:56.297Z,48.80
2023-03-31T16:15:51.790Z,48.84
2023-03-31T16:18:37.353Z,48.79
2023-03-31T16:21:06.239Z,48.67
2023-03-31T16:23:38.732Z,48.85
2023-03-31T16:26:08.824Z,48.77
2023-03-31T16:29:02.648Z,48.95
2023-03-31T16:31:36.386Z,48.85
2023-03-31T16:34:09.305Z,49.09
2023-03-31T16:36:38.149Z,49.21
2023-03-31T16:39:12.130Z,49.37
2023-03-31T16:41:40.914Z,49.66
2023-03-31T16:44:09.055Z,49.96
2023-03-31T16:46:37.624Z,50.17
2023-03-31T16:49:12.522Z,50.13
2023-03-31T16:51:41.958Z,50.00
2023-03-31T16:54:10.643Z,50.20
2023-03-31T16:56:42.556Z,50.55
2023-03-31T16:59:11.600Z,50.82
2023-03-31T17:01:39.955Z,51.05
2023-03-31T17:04:08.873Z,51.10
2023-03-31T17:06:39.586Z,51.19
2023-03-31T17:09:08.175Z,51.35
2023-03-31T17:11:36.444Z,51.73
2023-03-31T17:14:05.532Z,51.85
2023-03-31T17:19:22.972Z,52.16
2023-03-31T17:21:51.586Z,52.29
2023-03-31T17:24:22.603Z,52.43
2023-03-31T17:26:52.499Z,52.59
2023-03-31T17:29:28.616Z,52.83
2023-03-31T17:31:57.328Z,53.01
2023-03-31T17:34:30.489Z,53.11
2023-03-31T17:36:59.071Z,53.15
2023-03-31T17:39:27.733Z,53.34
2023-03-31T17:42:01.375Z,53.51
2023-03-31T17:44:31.584Z,53.65
2023-03-31T17:47:00.341Z,53.65
2023-03-31T17:49:29.221Z,53.96
2023-03-31T17:51:57.475Z,54.20
2023-03-31T17:54:26.344Z,54.57
2023-03-31T17:56:54.597Z,54.50
2023-03-31T17:59:24.148Z,54.72
2023-03-31T18:01:52.405Z,54.96
2023-03-31T18:04:21.305Z,55.03
2023-03-31T18:06:52.340Z,55.26
2023-03-31T18:09:25.131Z,55.62
2023-03-31T18:11:58.655Z,55.47
2023-03-31T18:14:27.806Z,55.49
2023-03-31T18:16:56.873Z,55.44
2023-03-31T18:19:25.136Z,55.43
2023-03-31T18:21:56.414Z,55.90
2023-03-31T18:24:24.962Z,55.98
2023-03-31T18:26:53.292Z,56.19
2023-03-31T18:29:23.035Z,56.20
2023-03-31T18:31:52.255Z,56.36
2023-03-31T18:34:24.799Z,56.35
2023-03-31T18:36:54.810Z,56.54
2023-03-31T18:39:23.020Z,56.59
2023-03-31T18:41:53.675Z,56.91
2023-03-31T18:44:22.776Z,56.93
2023-03-31T18:46:51.427Z,57.00
2023-03-31T18:49:23.297Z,57.09
2023-03-31T18:51:51.829Z,56.90
2023-03-31T18:54:21.288Z,56.95
2023-03-31T18:56:50.902Z,56.87
2023-03-31T18:59:21.503Z,56.80
2023-03-31T19:01:50.735Z,56.69
2023-03-31T19:04:19.535Z,56.58
2023-03-31T19:06:49.279Z,56.61
2023-03-31T19:09:19.740Z,56.51
2023-03-31T19:11:49.766Z,56.33
2023-03-31T19:14:27.868Z,56.22
2023-03-31T19:16:59.816Z,56.35
2023-03-31T19:19:58.786Z,56.35
2023-03-31T19:22:33.685Z,56.43
2023-03-31T19:25:02.000Z,56.41
2023-03-31T19:27:30.628Z,56.46
2023-03-31T19:29:59.198Z,56.53
2023-03-31T19:32:29.226Z,56.54
2023-03-31T19:34:57.562Z,56.76
2023-03-31T19:37:25.972Z,56.79
2023-03-31T19:39:54.887Z,56.96
2023-03-31T19:42:23.152Z,56.94
2023-03-31T19:44:53.869Z,57.18
2023-03-31T19:47:22.472Z,57.41
2023-03-31T19:49:52.299Z,57.93
2023-03-31T19:52:23.780Z,58.19
2023-03-31T19:54:52.069Z,58.49
2023-03-31T19:57:20.397Z,58.69
2023-03-31T19:59:51.435Z,58.63
2023-03-31T20:02:21.170Z,58.41
2023-03-31T20:04:50.021Z,58.17
2023-03-31T20:07:18.914Z,58.16
2023-03-31T20:09:47.394Z,58.23
2023-03-31T20:12:18.212Z,58.21
2023-03-31T20:14:46.613Z,58.06
2023-03-31T20:17:18.123Z,57.89
2023-03-31T20:19:47.861Z,57.64
2023-03-31T20:22:16.977Z,57.62
2023-03-31T20:24:49.020Z,57.41
2023-03-31T20:27:17.312Z,57.43
2023-03-31T20:29:48.576Z,57.46
2023-03-31T20:32:17.383Z,57.44
2023-03-31T20:34:45.831Z,57.66
2023-03-31T20:37:13.978Z,57.78
2023-03-31T20:39:42.475Z,58.33
2023-03-31T20:42:11.020Z,58.42
2023-03-31T20:44:39.306Z,58.37
2023-03-31T20:47:07.849Z,58.68
2023-03-31T20:49:36.339Z,58.87
2023-03-31T20:52:06.700Z,58.93
